CheckWX is a tool to help pilots better visualize weather data.  It is not intended as a substitute for an official pre-flight weather briefing.

09:25:37 UTC

KAQW METAR
Harriman-And-West Airport
North Adams, Massachusetts, USA
Current

34 mins ago

KAQW 220852Z AUTO 00000KT 10SM CLR 03/03 A3015 RMK AO2 SLP214 T00280028 51025
Observed
May-22 @ 08:52 UTC
Visibility
10 SM
Flight Rules
VFR
Cloud Levels
  • Clear skies
Temperature
C / 37°F
Dewpoint
C / 37°F
Humidity
100%
Altimeter
30.15" Hg
Pressure
1021.02 hPa
Previous

2 hours ago

KAQW 220752Z AUTO 00000KT 10SM CLR 03/02 A3013 RMK AO2 SLP205 T00330022
Observed
May-22 @ 07:52 UTC
Visibility
10 SM
Flight Rules
VFR
Cloud Levels
  • Clear skies
Temperature
C / 37°F
Dewpoint
C / 36°F
Humidity
93%
Altimeter
30.13" Hg
Pressure
1020.32 hPa
Previous

3 hours ago

KAQW 220652Z AUTO 00000KT 10SM CLR 04/03 A3011 RMK AO2 SLP198 T00390028
Observed
May-22 @ 06:52 UTC
Visibility
10 SM
Flight Rules
VFR
Cloud Levels
  • Clear skies
Temperature
C / 39°F
Dewpoint
C / 37°F
Humidity
93%
Altimeter
30.11" Hg
Pressure
1019.62 hPa